sensor_id;sensor_type;location;lat;lon;timestamp;P1;durP1;ratioP1;P2;durP2;ratioP2
11346;SDS011;5728;42.722;23.258;2023-06-22T00:01:17;12.02;;;8.10;;
11346;SDS011;5728;42.722;23.258;2023-06-22T00:03:44;13.30;;;8.57;;
11346;SDS011;5728;42.722;23.258;2023-06-22T00:06:11;9.95;;;8.02;;
11346;SDS011;5728;42.722;23.258;2023-06-22T00:08:38;9.85;;;8.50;;
11346;SDS011;5728;42.722;23.258;2023-06-22T00:11:05;16.23;;;7.90;;
11346;SDS011;5728;42.722;23.258;2023-06-22T00:13:32;11.48;;;8.43;;
11346;SDS011;5728;42.722;23.258;2023-06-22T00:16:00;12.50;;;8.20;;
11346;SDS011;5728;42.722;23.258;2023-06-22T00:18:27;13.38;;;8.95;;
11346;SDS011;5728;42.722;23.258;2023-06-22T00:20:55;9.20;;;7.97;;
11346;SDS011;5728;42.722;23.258;2023-06-22T02:02:01;16.30;;;13.80;;
11346;SDS011;5728;42.722;23.258;2023-06-22T02:04:32;12.65;;;9.95;;
11346;SDS011;5728;42.722;23.258;2023-06-22T02:07:05;15.80;;;9.18;;
11346;SDS011;5728;42.722;23.258;2023-06-22T02:09:35;12.80;;;9.50;;
11346;SDS011;5728;42.722;23.258;2023-06-22T02:12:05;11.68;;;9.63;;
11346;SDS011;5728;42.722;23.258;2023-06-22T02:14:34;11.48;;;8.75;;
11346;SDS011;5728;42.722;23.258;2023-06-22T02:17:04;16.63;;;8.75;;
11346;SDS011;5728;42.722;23.258;2023-06-22T02:19:32;9.48;;;7.95;;
11346;SDS011;5728;42.722;23.258;2023-06-22T02:22:02;14.93;;;8.45;;
11346;SDS011;5728;42.722;23.258;2023-06-22T02:24:30;9.75;;;8.73;;
11346;SDS011;5728;42.722;23.258;2023-06-22T02:26:58;9.43;;;7.88;;
11346;SDS011;5728;42.722;23.258;2023-06-22T02:29:26;13.82;;;9.48;;
11346;SDS011;5728;42.722;23.258;2023-06-22T02:31:53;11.73;;;9.23;;
11346;SDS011;5728;42.722;23.258;2023-06-22T02:34:22;12.95;;;9.50;;
11346;SDS011;5728;42.722;23.258;2023-06-22T02:36:49;16.63;;;9.50;;
11346;SDS011;5728;42.722;23.258;2023-06-22T02:39:18;11.73;;;8.95;;
11346;SDS011;5728;42.722;23.258;2023-06-22T02:41:47;10.55;;;9.13;;
11346;SDS011;5728;42.722;23.258;2023-06-22T02:44:14;12.43;;;9.43;;
11346;SDS011;5728;42.722;23.258;2023-06-22T02:46:41;15.27;;;10.10;;
11346;SDS011;5728;42.722;23.258;2023-06-22T02:49:08;11.82;;;9.85;;
11346;SDS011;5728;42.722;23.258;2023-06-22T02:51:37;16.88;;;9.55;;
11346;SDS011;5728;42.722;23.258;2023-06-22T02:54:05;11.40;;;8.50;;
11346;SDS011;5728;42.722;23.258;2023-06-22T02:56:32;11.35;;;8.77;;
11346;SDS011;5728;42.722;23.258;2023-06-22T02:58:59;14.55;;;9.27;;
11346;SDS011;5728;42.722;23.258;2023-06-22T03:01:26;13.30;;;9.15;;
11346;SDS011;5728;42.722;23.258;2023-06-22T03:04:05;12.10;;;8.50;;
11346;SDS011;5728;42.722;23.258;2023-06-22T03:06:32;10.40;;;9.25;;
11346;SDS011;5728;42.722;23.258;2023-06-22T03:09:01;14.40;;;8.98;;
11346;SDS011;5728;42.722;23.258;2023-06-22T03:11:29;10.27;;;8.60;;
11346;SDS011;5728;42.722;23.258;2023-06-22T03:13:56;11.50;;;8.80;;
11346;SDS011;5728;42.722;23.258;2023-06-22T03:16:23;16.10;;;9.65;;
11346;SDS011;5728;42.722;23.258;2023-06-22T03:18:50;11.57;;;9.00;;
11346;SDS011;5728;42.722;23.258;2023-06-22T03:21:18;17.83;;;9.88;;
11346;SDS011;5728;42.722;23.258;2023-06-22T03:23:45;15.55;;;9.35;;
11346;SDS011;5728;42.722;23.258;2023-06-22T03:26:16;12.82;;;9.98;;
11346;SDS011;5728;42.722;23.258;2023-06-22T03:28:43;13.20;;;9.32;;
11346;SDS011;5728;42.722;23.258;2023-06-22T03:31:10;16.25;;;9.07;;
11346;SDS011;5728;42.722;23.258;2023-06-22T03:33:37;14.73;;;9.50;;
11346;SDS011;5728;42.722;23.258;2023-06-22T03:36:03;10.32;;;8.93;;
11346;SDS011;5728;42.722;23.258;2023-06-22T03:38:30;9.77;;;7.95;;
11346;SDS011;5728;42.722;23.258;2023-06-22T03:40:57;11.77;;;9.07;;
11346;SDS011;5728;42.722;23.258;2023-06-22T03:43:25;12.43;;;9.68;;
11346;SDS011;5728;42.722;23.258;2023-06-22T03:45:52;15.90;;;10.32;;
11346;SDS011;5728;42.722;23.258;2023-06-22T03:48:19;18.90;;;9.35;;
11346;SDS011;5728;42.722;23.258;2023-06-22T03:50:45;12.85;;;10.93;;
11346;SDS011;5728;42.722;23.258;2023-06-22T03:53:12;13.77;;;10.30;;
11346;SDS011;5728;42.722;23.258;2023-06-22T03:55:47;13.55;;;9.27;;
11346;SDS011;5728;42.722;23.258;2023-06-22T03:58:15;11.05;;;9.55;;
11346;SDS011;5728;42.722;23.258;2023-06-22T04:00:45;15.02;;;9.50;;
11346;SDS011;5728;42.722;23.258;2023-06-22T04:03:13;9.98;;;8.85;;
11346;SDS011;5728;42.722;23.258;2023-06-22T04:05:39;16.83;;;8.93;;
11346;SDS011;5728;42.722;23.258;2023-06-22T04:08:06;10.75;;;8.43;;
11346;SDS011;5728;42.722;23.258;2023-06-22T04:10:33;14.93;;;8.82;;
11346;SDS011;5728;42.722;23.258;2023-06-22T04:13:00;14.30;;;10.13;;
11346;SDS011;5728;42.722;23.258;2023-06-22T04:15:27;12.02;;;8.90;;
11346;SDS011;5728;42.722;23.258;2023-06-22T04:17:55;11.15;;;9.02;;
11346;SDS011;5728;42.722;23.258;2023-06-22T04:20:23;18.42;;;9.40;;
11346;SDS011;5728;42.722;23.258;2023-06-22T04:22:51;14.13;;;9.02;;
11346;SDS011;5728;42.722;23.258;2023-06-22T04:25:18;14.20;;;10.20;;
11346;SDS011;5728;42.722;23.258;2023-06-22T04:27:45;13.55;;;9.32;;
11346;SDS011;5728;42.722;23.258;2023-06-22T04:30:12;14.60;;;10.18;;
11346;SDS011;5728;42.722;23.258;2023-06-22T04:32:40;20.27;;;10.13;;
11346;SDS011;5728;42.722;23.258;2023-06-22T04:35:08;15.10;;;9.80;;
11346;SDS011;5728;42.722;23.258;2023-06-22T04:37:35;13.57;;;9.57;;
11346;SDS011;5728;42.722;23.258;2023-06-22T04:40:03;11.15;;;9.23;;
11346;SDS011;5728;42.722;23.258;2023-06-22T04:42:30;16.23;;;10.25;;
11346;SDS011;5728;42.722;23.258;2023-06-22T04:44:58;18.35;;;10.63;;
11346;SDS011;5728;42.722;23.258;2023-06-22T04:47:24;14.25;;;10.10;;
11346;SDS011;5728;42.722;23.258;2023-06-22T04:49:51;14.25;;;9.57;;
11346;SDS011;5728;42.722;23.258;2023-06-22T04:52:19;13.63;;;10.85;;
11346;SDS011;5728;42.722;23.258;2023-06-22T04:54:46;14.38;;;10.60;;
11346;SDS011;5728;42.722;23.258;2023-06-22T04:57:15;20.23;;;10.05;;
11346;SDS011;5728;42.722;23.258;2023-06-22T04:59:42;18.10;;;10.55;;
11346;SDS011;5728;42.722;23.258;2023-06-22T05:02:09;21.77;;;10.88;;
11346;SDS011;5728;42.722;23.258;2023-06-22T05:04:36;14.13;;;9.52;;
11346;SDS011;5728;42.722;23.258;2023-06-22T05:07:03;12.70;;;9.73;;
11346;SDS011;5728;42.722;23.258;2023-06-22T05:09:32;16.65;;;9.75;;
11346;SDS011;5728;42.722;23.258;2023-06-22T05:11:59;17.92;;;10.10;;
11346;SDS011;5728;42.722;23.258;2023-06-22T05:14:27;17.77;;;10.23;;
11346;SDS011;5728;42.722;23.258;2023-06-22T05:16:54;17.92;;;11.23;;
11346;SDS011;5728;42.722;23.258;2023-06-22T05:19:23;21.40;;;10.65;;
11346;SDS011;5728;42.722;23.258;2023-06-22T05:21:50;16.38;;;10.68;;
11346;SDS011;5728;42.722;23.258;2023-06-22T05:24:17;17.77;;;10.63;;
11346;SDS011;5728;42.722;23.258;2023-06-22T05:26:45;25.35;;;10.88;;
11346;SDS011;5728;42.722;23.258;2023-06-22T05:29:12;15.98;;;10.02;;
11346;SDS011;5728;42.722;23.258;2023-06-22T05:31:39;18.13;;;10.45;;
11346;SDS011;5728;42.722;23.258;2023-06-22T05:34:06;13.23;;;10.30;;
11346;SDS011;5728;42.722;23.258;2023-06-22T05:36:33;19.20;;;10.40;;
11346;SDS011;5728;42.722;23.258;2023-06-22T05:39:09;18.52;;;10.27;;
11346;SDS011;5728;42.722;23.258;2023-06-22T05:41:38;13.85;;;9.32;;
11346;SDS011;5728;42.722;23.258;2023-06-22T05:44:06;14.50;;;9.35;;
11346;SDS011;5728;42.722;23.258;2023-06-22T05:46:33;11.13;;;8.65;;
11346;SDS011;5728;42.722;23.258;2023-06-22T05:49:00;27.10;;;9.85;;
11346;SDS011;5728;42.722;23.258;2023-06-22T05:51:26;25.17;;;9.73;;
11346;SDS011;5728;42.722;23.258;2023-06-22T05:53:53;10.35;;;9.23;;
11346;SDS011;5728;42.722;23.258;2023-06-22T05:56:20;16.33;;;9.98;;
11346;SDS011;5728;42.722;23.258;2023-06-22T05:58:47;15.32;;;9.23;;
11346;SDS011;5728;42.722;23.258;2023-06-22T06:01:15;19.58;;;9.45;;
11346;SDS011;5728;42.722;23.258;2023-06-22T06:03:42;15.27;;;9.65;;
11346;SDS011;5728;42.722;23.258;2023-06-22T06:06:09;13.07;;;9.88;;
11346;SDS011;5728;42.722;23.258;2023-06-22T06:08:36;12.82;;;9.10;;
11346;SDS011;5728;42.722;23.258;2023-06-22T06:11:03;25.73;;;11.13;;
11346;SDS011;5728;42.722;23.258;2023-06-22T06:13:30;13.98;;;10.00;;
11346;SDS011;5728;42.722;23.258;2023-06-22T06:15:56;14.90;;;10.60;;
11346;SDS011;5728;42.722;23.258;2023-06-22T06:18:25;15.63;;;10.60;;
11346;SDS011;5728;42.722;23.258;2023-06-22T06:20:52;16.55;;;10.85;;
11346;SDS011;5728;42.722;23.258;2023-06-22T06:23:19;16.58;;;11.32;;
11346;SDS011;5728;42.722;23.258;2023-06-22T06:25:46;15.85;;;10.80;;
11346;SDS011;5728;42.722;23.258;2023-06-22T06:28:12;14.85;;;10.23;;
11346;SDS011;5728;42.722;23.258;2023-06-22T06:30:39;13.27;;;10.00;;
11346;SDS011;5728;42.722;23.258;2023-06-22T06:33:06;19.90;;;10.80;;
11346;SDS011;5728;42.722;23.258;2023-06-22T06:35:35;14.43;;;9.80;;
11346;SDS011;5728;42.722;23.258;2023-06-22T06:38:02;13.95;;;9.35;;
11346;SDS011;5728;42.722;23.258;2023-06-22T06:40:29;13.45;;;10.07;;
11346;SDS011;5728;42.722;23.258;2023-06-22T06:42:56;17.50;;;10.20;;
11346;SDS011;5728;42.722;23.258;2023-06-22T06:45:23;10.93;;;9.68;;
11346;SDS011;5728;42.722;23.258;2023-06-22T06:47:53;11.05;;;9.95;;
11346;SDS011;5728;42.722;23.258;2023-06-22T06:50:20;16.40;;;10.43;;
11346;SDS011;5728;42.722;23.258;2023-06-22T06:52:49;13.50;;;9.60;;
11346;SDS011;5728;42.722;23.258;2023-06-22T06:55:16;12.60;;;9.40;;
11346;SDS011;5728;42.722;23.258;2023-06-22T06:57:44;11.60;;;9.93;;
11346;SDS011;5728;42.722;23.258;2023-06-22T07:00:13;11.32;;;9.48;;
11346;SDS011;5728;42.722;23.258;2023-06-22T07:02:41;16.08;;;9.70;;
11346;SDS011;5728;42.722;23.258;2023-06-22T07:05:09;12.18;;;9.27;;
11346;SDS011;5728;42.722;23.258;2023-06-22T07:07:37;18.08;;;9.10;;
11346;SDS011;5728;42.722;23.258;2023-06-22T07:10:07;13.32;;;8.50;;
11346;SDS011;5728;42.722;23.258;2023-06-22T07:12:34;13.88;;;9.30;;
11346;SDS011;5728;42.722;23.258;2023-06-22T07:15:02;9.95;;;8.55;;
11346;SDS011;5728;42.722;23.258;2023-06-22T07:17:30;15.35;;;9.07;;
11346;SDS011;5728;42.722;23.258;2023-06-22T07:19:57;13.80;;;8.77;;
11346;SDS011;5728;42.722;23.258;2023-06-22T07:22:25;13.38;;;9.05;;
11346;SDS011;5728;42.722;23.258;2023-06-22T07:24:51;8.32;;;7.53;;
11346;SDS011;5728;42.722;23.258;2023-06-22T07:27:20;16.55;;;8.07;;
11346;SDS011;5728;42.722;23.258;2023-06-22T07:29:47;8.23;;;6.57;;
11346;SDS011;5728;42.722;23.258;2023-06-22T07:32:14;8.05;;;7.25;;
11346;SDS011;5728;42.722;23.258;2023-06-22T07:34:41;17.90;;;8.13;;
11346;SDS011;5728;42.722;23.258;2023-06-22T07:37:08;9.57;;;7.60;;
11346;SDS011;5728;42.722;23.258;2023-06-22T07:39:35;8.73;;;7.32;;
11346;SDS011;5728;42.722;23.258;2023-06-22T07:42:03;16.50;;;8.00;;
11346;SDS011;5728;42.722;23.258;2023-06-22T07:44:31;13.18;;;7.32;;
11346;SDS011;5728;42.722;23.258;2023-06-22T07:46:58;10.10;;;9.02;;
11346;SDS011;5728;42.722;23.258;2023-06-22T07:49:25;13.15;;;9.10;;
11346;SDS011;5728;42.722;23.258;2023-06-22T07:51:52;13.18;;;8.43;;
11346;SDS011;5728;42.722;23.258;2023-06-22T07:54:19;10.80;;;8.05;;
11346;SDS011;5728;42.722;23.258;2023-06-22T07:56:46;10.77;;;9.10;;
11346;SDS011;5728;42.722;23.258;2023-06-22T07:59:12;10.90;;;9.55;;
11346;SDS011;5728;42.722;23.258;2023-06-22T08:01:41;9.73;;;8.70;;
11346;SDS011;5728;42.722;23.258;2023-06-22T08:04:08;11.18;;;9.05;;
11346;SDS011;5728;42.722;23.258;2023-06-22T08:06:35;11.10;;;8.15;;
11346;SDS011;5728;42.722;23.258;2023-06-22T08:09:02;14.25;;;8.95;;
11346;SDS011;5728;42.722;23.258;2023-06-22T08:11:29;20.17;;;9.52;;
11346;SDS011;5728;42.722;23.258;2023-06-22T08:13:56;11.10;;;8.90;;
11346;SDS011;5728;42.722;23.258;2023-06-22T08:16:23;15.38;;;9.05;;
11346;SDS011;5728;42.722;23.258;2023-06-22T08:18:52;10.40;;;8.98;;
11346;SDS011;5728;42.722;23.258;2023-06-22T08:21:20;15.55;;;8.85;;
11346;SDS011;5728;42.722;23.258;2023-06-22T08:23:47;9.50;;;8.48;;
11346;SDS011;5728;42.722;23.258;2023-06-22T08:26:14;13.57;;;8.75;;
11346;SDS011;5728;42.722;23.258;2023-06-22T08:28:41;12.05;;;8.25;;
11346;SDS011;5728;42.722;23.258;2023-06-22T08:31:08;9.32;;;8.35;;
11346;SDS011;5728;42.722;23.258;2023-06-22T08:33:39;14.25;;;8.77;;
11346;SDS011;5728;42.722;23.258;2023-06-22T08:36:07;9.15;;;8.05;;
11346;SDS011;5728;42.722;23.258;2023-06-22T08:38:36;13.90;;;8.35;;
11346;SDS011;5728;42.722;23.258;2023-06-22T08:41:03;9.90;;;7.68;;
11346;SDS011;5728;42.722;23.258;2023-06-22T08:43:29;9.60;;;8.07;;
11346;SDS011;5728;42.722;23.258;2023-06-22T08:45:56;9.13;;;7.78;;
11346;SDS011;5728;42.722;23.258;2023-06-22T08:48:23;10.65;;;7.82;;
11346;SDS011;5728;42.722;23.258;2023-06-22T08:50:50;9.48;;;8.48;;
11346;SDS011;5728;42.722;23.258;2023-06-22T08:53:18;9.35;;;7.88;;
11346;SDS011;5728;42.722;23.258;2023-06-22T08:55:46;10.88;;;8.07;;
11346;SDS011;5728;42.722;23.258;2023-06-22T08:58:12;10.15;;;7.43;;
11346;SDS011;5728;42.722;23.258;2023-06-22T09:00:39;9.13;;;8.05;;
11346;SDS011;5728;42.722;23.258;2023-06-22T09:03:06;10.77;;;8.40;;
11346;SDS011;5728;42.722;23.258;2023-06-22T09:05:33;8.57;;;6.80;;
11346;SDS011;5728;42.722;23.258;2023-06-22T09:08:00;7.90;;;7.10;;
11346;SDS011;5728;42.722;23.258;2023-06-22T09:10:28;7.90;;;7.10;;
11346;SDS011;5728;42.722;23.258;2023-06-22T09:12:55;7.60;;;6.50;;
11346;SDS011;5728;42.722;23.258;2023-06-22T09:15:23;7.20;;;6.47;;
11346;SDS011;5728;42.722;23.258;2023-06-22T09:17:50;8.60;;;6.53;;
11346;SDS011;5728;42.722;23.258;2023-06-22T09:20:19;9.10;;;7.07;;
11346;SDS011;5728;42.722;23.258;2023-06-22T09:22:46;8.10;;;6.78;;
11346;SDS011;5728;42.722;23.258;2023-06-22T09:25:13;7.05;;;6.35;;
11346;SDS011;5728;42.722;23.258;2023-06-22T09:27:42;8.63;;;6.80;;
11346;SDS011;5728;42.722;23.258;2023-06-22T09:30:09;8.95;;;7.22;;
11346;SDS011;5728;42.722;23.258;2023-06-22T09:32:36;7.43;;;6.13;;
11346;SDS011;5728;42.722;23.258;2023-06-22T09:35:04;10.98;;;7.03;;
11346;SDS011;5728;42.722;23.258;2023-06-22T09:37:32;8.77;;;6.75;;
11346;SDS011;5728;42.722;23.258;2023-06-22T09:39:58;12.77;;;7.38;;
11346;SDS011;5728;42.722;23.258;2023-06-22T09:42:25;14.40;;;7.78;;
11346;SDS011;5728;42.722;23.258;2023-06-22T09:44:54;8.85;;;7.43;;
11346;SDS011;5728;42.722;23.258;2023-06-22T09:47:20;8.23;;;7.40;;
11346;SDS011;5728;42.722;23.258;2023-06-22T09:49:47;9.02;;;6.93;;
11346;SDS011;5728;42.722;23.258;2023-06-22T09:52:14;10.25;;;6.72;;
11346;SDS011;5728;42.722;23.258;2023-06-22T09:54:41;7.93;;;6.63;;
11346;SDS011;5728;42.722;23.258;2023-06-22T09:57:08;7.88;;;7.00;;
11346;SDS011;5728;42.722;23.258;2023-06-22T09:59:35;7.82;;;7.03;;
11346;SDS011;5728;42.722;23.258;2023-06-22T10:02:04;8.25;;;6.80;;
11346;SDS011;5728;42.722;23.258;2023-06-22T10:04:31;9.77;;;6.85;;
11346;SDS011;5728;42.722;23.258;2023-06-22T10:06:58;7.45;;;6.35;;
11346;SDS011;5728;42.722;23.258;2023-06-22T10:09:26;7.30;;;6.43;;
11346;SDS011;5728;42.722;23.258;2023-06-22T10:11:53;10.85;;;7.80;;
11346;SDS011;5728;42.722;23.258;2023-06-22T10:14:20;8.00;;;6.70;;
11346;SDS011;5728;42.722;23.258;2023-06-22T10:16:47;9.25;;;7.22;;
11346;SDS011;5728;42.722;23.258;2023-06-22T10:19:16;8.40;;;6.68;;
11346;SDS011;5728;42.722;23.258;2023-06-22T10:21:43;8.10;;;7.30;;
11346;SDS011;5728;42.722;23.258;2023-06-22T10:24:09;7.57;;;6.78;;
11346;SDS011;5728;42.722;23.258;2023-06-22T10:26:37;9.35;;;6.63;;
11346;SDS011;5728;42.722;23.258;2023-06-22T10:29:04;7.95;;;7.07;;
11346;SDS011;5728;42.722;23.258;2023-06-22T10:31:31;7.35;;;6.65;;
11346;SDS011;5728;42.722;23.258;2023-06-22T10:33:58;8.77;;;7.35;;
11346;SDS011;5728;42.722;23.258;2023-06-22T10:36:26;9.30;;;8.00;;
11346;SDS011;5728;42.722;23.258;2023-06-22T10:38:53;10.02;;;7.22;;
11346;SDS011;5728;42.722;23.258;2023-06-22T10:41:20;8.02;;;7.22;;
11346;SDS011;5728;42.722;23.258;2023-06-22T10:43:47;9.18;;;7.05;;
11346;SDS011;5728;42.722;23.258;2023-06-22T10:46:14;8.50;;;7.05;;
11346;SDS011;5728;42.722;23.258;2023-06-22T10:48:42;10.18;;;7.38;;
11346;SDS011;5728;42.722;23.258;2023-06-22T10:51:08;10.00;;;7.85;;
11346;SDS011;5728;42.722;23.258;2023-06-22T10:53:37;7.32;;;6.63;;
11346;SDS011;5728;42.722;23.258;2023-06-22T10:56:04;9.10;;;7.63;;
11346;SDS011;5728;42.722;23.258;2023-06-22T10:58:32;8.35;;;7.13;;
11346;SDS011;5728;42.722;23.258;2023-06-22T11:00:59;9.32;;;7.53;;
11346;SDS011;5728;42.722;23.258;2023-06-22T11:03:28;8.30;;;7.05;;
11346;SDS011;5728;42.722;23.258;2023-06-22T11:05:56;8.45;;;7.30;;
11346;SDS011;5728;42.722;23.258;2023-06-22T11:08:23;12.77;;;7.47;;
11346;SDS011;5728;42.722;23.258;2023-06-22T11:10:52;9.43;;;7.72;;
11346;SDS011;5728;42.722;23.258;2023-06-22T11:13:19;7.65;;;6.75;;
11346;SDS011;5728;42.722;23.258;2023-06-22T11:15:46;8.43;;;6.72;;
11346;SDS011;5728;42.722;23.258;2023-06-22T11:18:13;8.15;;;7.13;;
11346;SDS011;5728;42.722;23.258;2023-06-22T11:20:39;8.88;;;7.30;;
11346;SDS011;5728;42.722;23.258;2023-06-22T11:23:06;8.60;;;7.70;;
11346;SDS011;5728;42.722;23.258;2023-06-22T11:25:34;9.48;;;7.70;;
11346;SDS011;5728;42.722;23.258;2023-06-22T11:28:04;9.13;;;8.07;;
11346;SDS011;5728;42.722;23.258;2023-06-22T11:30:31;8.88;;;6.93;;
11346;SDS011;5728;42.722;23.258;2023-06-22T11:32:59;7.68;;;6.88;;
11346;SDS011;5728;42.722;23.258;2023-06-22T11:35:26;14.15;;;7.25;;
11346;SDS011;5728;42.722;23.258;2023-06-22T11:37:53;8.88;;;7.22;;
11346;SDS011;5728;42.722;23.258;2023-06-22T11:40:21;13.20;;;7.07;;
11346;SDS011;5728;42.722;23.258;2023-06-22T11:42:48;11.68;;;7.50;;
11346;SDS011;5728;42.722;23.258;2023-06-22T11:45:16;9.07;;;7.50;;
11346;SDS011;5728;42.722;23.258;2023-06-22T11:47:44;9.95;;;7.50;;
11346;SDS011;5728;42.722;23.258;2023-06-22T11:50:11;11.55;;;7.80;;
11346;SDS011;5728;42.722;23.258;2023-06-22T11:52:37;11.27;;;8.13;;
11346;SDS011;5728;42.722;23.258;2023-06-22T11:55:05;11.00;;;8.43;;
11346;SDS011;5728;42.722;23.258;2023-06-22T11:57:33;14.15;;;8.30;;
11346;SDS011;5728;42.722;23.258;2023-06-22T12:00:00;12.45;;;8.73;;
11346;SDS011;5728;42.722;23.258;2023-06-22T12:02:32;12.68;;;8.43;;
11346;SDS011;5728;42.722;23.258;2023-06-22T12:04:59;10.65;;;7.30;;
11346;SDS011;5728;42.722;23.258;2023-06-22T12:07:29;8.15;;;7.20;;
11346;SDS011;5728;42.722;23.258;2023-06-22T12:09:56;8.27;;;7.07;;
11346;SDS011;5728;42.722;23.258;2023-06-22T12:12:24;10.82;;;8.15;;
11346;SDS011;5728;42.722;23.258;2023-06-22T12:14:50;10.80;;;7.35;;
11346;SDS011;5728;42.722;23.258;2023-06-22T12:17:17;13.27;;;8.40;;
11346;SDS011;5728;42.722;23.258;2023-06-22T12:19:46;12.95;;;8.77;;
11346;SDS011;5728;42.722;23.258;2023-06-22T12:22:12;12.60;;;8.20;;
11346;SDS011;5728;42.722;23.258;2023-06-22T12:24:39;16.13;;;9.93;;
11346;SDS011;5728;42.722;23.258;2023-06-22T12:27:07;18.45;;;9.30;;
11346;SDS011;5728;42.722;23.258;2023-06-22T12:29:35;11.82;;;5.97;;
11346;SDS011;5728;42.722;23.258;2023-06-22T12:32:02;13.82;;;5.60;;
11346;SDS011;5728;42.722;23.258;2023-06-22T12:34:29;11.80;;;6.43;;
11346;SDS011;5728;42.722;23.258;2023-06-22T12:36:57;11.75;;;5.15;;
11346;SDS011;5728;42.722;23.258;2023-06-22T12:39:24;9.63;;;5.50;;
11346;SDS011;5728;42.722;23.258;2023-06-22T12:41:51;7.85;;;5.70;;
11346;SDS011;5728;42.722;23.258;2023-06-22T12:44:18;6.88;;;4.88;;
11346;SDS011;5728;42.722;23.258;2023-06-22T12:46:45;7.75;;;5.20;;
11346;SDS011;5728;42.722;23.258;2023-06-22T12:49:12;8.52;;;5.13;;
11346;SDS011;5728;42.722;23.258;2023-06-22T12:51:39;9.20;;;5.55;;
11346;SDS011;5728;42.722;23.258;2023-06-22T12:54:09;12.82;;;6.03;;
11346;SDS011;5728;42.722;23.258;2023-06-22T12:56:36;16.27;;;6.60;;
11346;SDS011;5728;42.722;23.258;2023-06-22T12:59:03;6.97;;;5.03;;
11346;SDS011;5728;42.722;23.258;2023-06-22T13:01:31;9.43;;;5.40;;
11346;SDS011;5728;42.722;23.258;2023-06-22T13:03:58;12.30;;;5.97;;
11346;SDS011;5728;42.722;23.258;2023-06-22T13:06:25;9.65;;;6.10;;
11346;SDS011;5728;42.722;23.258;2023-06-22T13:08:52;7.15;;;5.45;;
11346;SDS011;5728;42.722;23.258;2023-06-22T13:11:20;9.00;;;5.78;;
11346;SDS011;5728;42.722;23.258;2023-06-22T13:13:47;7.95;;;5.78;;
11346;SDS011;5728;42.722;23.258;2023-06-22T13:16:14;13.10;;;5.60;;
11346;SDS011;5728;42.722;23.258;2023-06-22T13:18:41;11.10;;;6.20;;
11346;SDS011;5728;42.722;23.258;2023-06-22T13:21:08;9.40;;;6.75;;
11346;SDS011;5728;42.722;23.258;2023-06-22T13:23:35;10.25;;;6.63;;
11346;SDS011;5728;42.722;23.258;2023-06-22T13:26:02;13.30;;;6.20;;
11346;SDS011;5728;42.722;23.258;2023-06-22T13:28:31;11.60;;;6.50;;
11346;SDS011;5728;42.722;23.258;2023-06-22T13:30:58;16.02;;;7.20;;
11346;SDS011;5728;42.722;23.258;2023-06-22T13:33:25;13.98;;;7.15;;
11346;SDS011;5728;42.722;23.258;2023-06-22T13:35:51;12.68;;;7.43;;
11346;SDS011;5728;42.722;23.258;2023-06-22T13:38:18;11.07;;;6.85;;
11346;SDS011;5728;42.722;23.258;2023-06-22T13:40:45;12.77;;;7.68;;
11346;SDS011;5728;42.722;23.258;2023-06-22T13:43:13;9.85;;;7.38;;
11346;SDS011;5728;42.722;23.258;2023-06-22T13:45:44;8.45;;;6.22;;
11346;SDS011;5728;42.722;23.258;2023-06-22T13:48:11;8.38;;;6.18;;
11346;SDS011;5728;42.722;23.258;2023-06-22T13:50:39;10.15;;;6.47;;
11346;SDS011;5728;42.722;23.258;2023-06-22T13:53:07;10.93;;;6.93;;
11346;SDS011;5728;42.722;23.258;2023-06-22T13:55:35;10.93;;;8.25;;
11346;SDS011;5728;42.722;23.258;2023-06-22T13:58:03;10.80;;;8.05;;
11346;SDS011;5728;42.722;23.258;2023-06-22T14:00:30;14.40;;;9.55;;
11346;SDS011;5728;42.722;23.258;2023-06-22T14:02:58;14.48;;;8.55;;
11346;SDS011;5728;42.722;23.258;2023-06-22T14:05:26;12.82;;;7.68;;
11346;SDS011;5728;42.722;23.258;2023-06-22T14:07:52;12.30;;;7.00;;
11346;SDS011;5728;42.722;23.258;2023-06-22T14:10:19;11.48;;;8.02;;
11346;SDS011;5728;42.722;23.258;2023-06-22T14:12:46;16.90;;;8.48;;
11346;SDS011;5728;42.722;23.258;2023-06-22T14:15:13;15.15;;;8.43;;
11346;SDS011;5728;42.722;23.258;2023-06-22T14:17:40;12.40;;;7.75;;
11346;SDS011;5728;42.722;23.258;2023-06-22T14:20:09;12.40;;;8.18;;
11346;SDS011;5728;42.722;23.258;2023-06-22T14:22:36;10.18;;;6.88;;
11346;SDS011;5728;42.722;23.258;2023-06-22T14:25:04;10.50;;;7.40;;
11346;SDS011;5728;42.722;23.258;2023-06-22T14:27:32;15.18;;;8.23;;
11346;SDS011;5728;42.722;23.258;2023-06-22T14:29:59;12.70;;;7.90;;
11346;SDS011;5728;42.722;23.258;2023-06-22T14:32:27;14.90;;;8.88;;
11346;SDS011;5728;42.722;23.258;2023-06-22T14:34:55;22.67;;;8.35;;
11346;SDS011;5728;42.722;23.258;2023-06-22T14:37:23;19.63;;;8.70;;
11346;SDS011;5728;42.722;23.258;2023-06-22T14:39:50;13.05;;;8.10;;
11346;SDS011;5728;42.722;23.258;2023-06-22T14:42:17;11.55;;;8.90;;
11346;SDS011;5728;42.722;23.258;2023-06-22T14:44:43;18.98;;;8.10;;
11346;SDS011;5728;42.722;23.258;2023-06-22T14:47:10;9.48;;;7.75;;
11346;SDS011;5728;42.722;23.258;2023-06-22T14:49:37;12.68;;;7.90;;
11346;SDS011;5728;42.722;23.258;2023-06-22T14:52:04;11.43;;;7.75;;
11346;SDS011;5728;42.722;23.258;2023-06-22T14:54:33;16.42;;;7.68;;
11346;SDS011;5728;42.722;23.258;2023-06-22T14:57:00;11.57;;;7.32;;
11346;SDS011;5728;42.722;23.258;2023-06-22T14:59:27;8.57;;;6.43;;
11346;SDS011;5728;42.722;23.258;2023-06-22T15:01:53;16.83;;;8.07;;
11346;SDS011;5728;42.722;23.258;2023-06-22T15:04:20;15.13;;;9.07;;
11346;SDS011;5728;42.722;23.258;2023-06-22T15:06:47;13.23;;;9.02;;
11346;SDS011;5728;42.722;23.258;2023-06-22T15:09:14;16.23;;;9.73;;
11346;SDS011;5728;42.722;23.258;2023-06-22T15:11:42;15.30;;;9.55;;
11346;SDS011;5728;42.722;23.258;2023-06-22T15:14:09;21.95;;;9.85;;
11346;SDS011;5728;42.722;23.258;2023-06-22T15:16:36;18.38;;;9.43;;
11346;SDS011;5728;42.722;23.258;2023-06-22T15:19:03;19.38;;;9.32;;
11346;SDS011;5728;42.722;23.258;2023-06-22T15:21:30;16.17;;;10.35;;
11346;SDS011;5728;42.722;23.258;2023-06-22T15:23:57;10.90;;;8.43;;
11346;SDS011;5728;42.722;23.258;2023-06-22T15:26:24;17.38;;;8.82;;
11346;SDS011;5728;42.722;23.258;2023-06-22T15:28:52;13.20;;;9.40;;
11346;SDS011;5728;42.722;23.258;2023-06-22T15:31:20;13.32;;;8.30;;
11346;SDS011;5728;42.722;23.258;2023-06-22T15:33:47;13.40;;;8.27;;
11346;SDS011;5728;42.722;23.258;2023-06-22T15:36:14;9.68;;;7.57;;
11346;SDS011;5728;42.722;23.258;2023-06-22T15:38:41;11.52;;;6.55;;
11346;SDS011;5728;42.722;23.258;2023-06-22T15:41:08;10.90;;;6.93;;
11346;SDS011;5728;42.722;23.258;2023-06-22T15:43:34;12.48;;;7.50;;
11346;SDS011;5728;42.722;23.258;2023-06-22T15:46:03;15.57;;;6.43;;
11346;SDS011;5728;42.722;23.258;2023-06-22T15:48:29;9.35;;;6.63;;
11346;SDS011;5728;42.722;23.258;2023-06-22T15:50:56;7.75;;;6.70;;
11346;SDS011;5728;42.722;23.258;2023-06-22T15:53:24;8.63;;;6.68;;
11346;SDS011;5728;42.722;23.258;2023-06-22T15:55:50;11.07;;;7.07;;
11346;SDS011;5728;42.722;23.258;2023-06-22T15:58:18;9.85;;;6.90;;
11346;SDS011;5728;42.722;23.258;2023-06-22T16:00:44;8.35;;;6.45;;
11346;SDS011;5728;42.722;23.258;2023-06-22T16:03:15;13.65;;;7.32;;
11346;SDS011;5728;42.722;23.258;2023-06-22T16:05:42;9.68;;;5.55;;
11346;SDS011;5728;42.722;23.258;2023-06-22T16:08:09;11.27;;;6.15;;
11346;SDS011;5728;42.722;23.258;2023-06-22T16:10:37;11.73;;;6.18;;
11346;SDS011;5728;42.722;23.258;2023-06-22T16:13:04;7.15;;;6.07;;
11346;SDS011;5728;42.722;23.258;2023-06-22T16:15:31;16.02;;;7.10;;